sensor_id;sensor_type;location;lat;lon;timestamp;P1;durP1;ratioP1;P2;durP2;ratioP2
55372;SDS011;41249;47.838;16.490;2023-03-01T00:00:06;18.95;;;8.75;;
55372;SDS011;41249;47.838;16.490;2023-03-01T00:02:33;15.35;;;9.35;;
55372;SDS011;41249;47.838;16.490;2023-03-01T00:05:00;15.18;;;8.35;;
55372;SDS011;41249;47.838;16.490;2023-03-01T00:07:27;15.52;;;9.32;;
55372;SDS011;41249;47.838;16.490;2023-03-01T00:09:53;16.70;;;10.13;;
55372;SDS011;41249;47.838;16.490;2023-03-01T00:12:20;19.05;;;10.27;;
55372;SDS011;41249;47.838;16.490;2023-03-01T00:14:46;19.13;;;8.55;;
55372;SDS011;41249;47.838;16.490;2023-03-01T00:17:13;14.88;;;8.00;;
55372;SDS011;41249;47.838;16.490;2023-03-01T00:19:40;12.68;;;7.13;;
55372;SDS011;41249;47.838;16.490;2023-03-01T00:22:06;16.80;;;8.70;;
55372;SDS011;41249;47.838;16.490;2023-03-01T00:24:33;19.60;;;9.48;;
55372;SDS011;41249;47.838;16.490;2023-03-01T00:26:59;20.23;;;9.32;;
55372;SDS011;41249;47.838;16.490;2023-03-01T00:29:26;17.15;;;8.80;;
55372;SDS011;41249;47.838;16.490;2023-03-01T00:31:53;15.85;;;8.35;;
55372;SDS011;41249;47.838;16.490;2023-03-01T00:34:19;7.93;;;4.45;;
55372;SDS011;41249;47.838;16.490;2023-03-01T00:36:46;14.43;;;8.23;;
55372;SDS011;41249;47.838;16.490;2023-03-01T00:39:13;14.38;;;8.85;;
55372;SDS011;41249;47.838;16.490;2023-03-01T00:41:41;11.02;;;5.75;;
55372;SDS011;41249;47.838;16.490;2023-03-01T00:44:09;7.80;;;4.07;;
55372;SDS011;41249;47.838;16.490;2023-03-01T00:46:36;12.02;;;4.53;;
55372;SDS011;41249;47.838;16.490;2023-03-01T00:49:03;8.32;;;4.93;;
55372;SDS011;41249;47.838;16.490;2023-03-01T00:51:30;8.95;;;5.40;;
55372;SDS011;41249;47.838;16.490;2023-03-01T00:53:59;14.52;;;6.95;;
55372;SDS011;41249;47.838;16.490;2023-03-01T00:56:26;10.13;;;5.65;;
55372;SDS011;41249;47.838;16.490;2023-03-01T00:58:54;6.50;;;3.97;;
55372;SDS011;41249;47.838;16.490;2023-03-01T01:01:21;9.20;;;5.15;;
55372;SDS011;41249;47.838;16.490;2023-03-01T01:03:54;9.20;;;5.95;;
55372;SDS011;41249;47.838;16.490;2023-03-01T01:06:24;10.25;;;6.05;;
55372;SDS011;41249;47.838;16.490;2023-03-01T01:08:53;11.32;;;5.53;;
55372;SDS011;41249;47.838;16.490;2023-03-01T01:11:21;7.03;;;4.85;;
55372;SDS011;41249;47.838;16.490;2023-03-01T01:13:50;5.45;;;4.45;;
55372;SDS011;41249;47.838;16.490;2023-03-01T01:16:17;13.15;;;6.25;;
55372;SDS011;41249;47.838;16.490;2023-03-01T01:18:45;15.70;;;7.85;;
55372;SDS011;41249;47.838;16.490;2023-03-01T01:21:16;19.15;;;9.00;;
55372;SDS011;41249;47.838;16.490;2023-03-01T01:23:45;14.65;;;8.38;;
55372;SDS011;41249;47.838;16.490;2023-03-01T01:26:26;13.82;;;8.40;;
55372;SDS011;41249;47.838;16.490;2023-03-01T01:31:25;10.68;;;5.90;;
55372;SDS011;41249;47.838;16.490;2023-03-01T01:33:53;12.70;;;7.35;;
55372;SDS011;41249;47.838;16.490;2023-03-01T01:36:20;14.20;;;8.25;;
55372;SDS011;41249;47.838;16.490;2023-03-01T01:38:47;13.57;;;7.00;;
55372;SDS011;41249;47.838;16.490;2023-03-01T01:41:14;15.10;;;8.10;;
55372;SDS011;41249;47.838;16.490;2023-03-01T01:43:49;14.48;;;7.82;;
55372;SDS011;41249;47.838;16.490;2023-03-01T01:46:37;17.42;;;8.48;;
55372;SDS011;41249;47.838;16.490;2023-03-01T01:49:31;12.98;;;7.63;;
55372;SDS011;41249;47.838;16.490;2023-03-01T01:52:10;13.30;;;8.75;;
55372;SDS011;41249;47.838;16.490;2023-03-01T01:57:27;13.65;;;7.97;;
55372;SDS011;41249;47.838;16.490;2023-03-01T02:00:04;13.18;;;5.90;;
55372;SDS011;41249;47.838;16.490;2023-03-01T02:02:34;13.32;;;7.88;;
55372;SDS011;41249;47.838;16.490;2023-03-01T02:07:51;6.80;;;5.25;;
55372;SDS011;41249;47.838;16.490;2023-03-01T02:10:19;10.40;;;5.50;;
55372;SDS011;41249;47.838;16.490;2023-03-01T02:12:49;15.57;;;9.00;;
55372;SDS011;41249;47.838;16.490;2023-03-01T02:15:16;14.02;;;7.15;;
55372;SDS011;41249;47.838;16.490;2023-03-01T02:17:42;11.02;;;5.57;;
55372;SDS011;41249;47.838;16.490;2023-03-01T02:20:15;7.57;;;4.82;;
55372;SDS011;41249;47.838;16.490;2023-03-01T02:22:49;6.80;;;5.07;;
55372;SDS011;41249;47.838;16.490;2023-03-01T02:27:58;11.52;;;7.28;;
55372;SDS011;41249;47.838;16.490;2023-03-01T02:30:26;14.02;;;8.45;;
55372;SDS011;41249;47.838;16.490;2023-03-01T02:32:54;11.02;;;6.63;;
55372;SDS011;41249;47.838;16.490;2023-03-01T02:35:29;8.98;;;5.60;;
55372;SDS011;41249;47.838;16.490;2023-03-01T02:38:00;7.68;;;4.90;;
55372;SDS011;41249;47.838;16.490;2023-03-01T02:40:30;6.32;;;4.35;;
55372;SDS011;41249;47.838;16.490;2023-03-01T02:43:00;11.00;;;6.47;;
55372;SDS011;41249;47.838;16.490;2023-03-01T02:45:26;14.05;;;7.00;;
55372;SDS011;41249;47.838;16.490;2023-03-01T02:47:57;14.50;;;9.13;;
55372;SDS011;41249;47.838;16.490;2023-03-01T02:53:08;14.60;;;7.72;;
55372;SDS011;41249;47.838;16.490;2023-03-01T02:55:39;14.25;;;7.55;;
55372;SDS011;41249;47.838;16.490;2023-03-01T02:58:06;13.85;;;6.93;;
55372;SDS011;41249;47.838;16.490;2023-03-01T03:00:37;14.10;;;8.20;;
55372;SDS011;41249;47.838;16.490;2023-03-01T03:03:10;12.65;;;7.78;;
55372;SDS011;41249;47.838;16.490;2023-03-01T03:05:40;11.48;;;6.18;;
55372;SDS011;41249;47.838;16.490;2023-03-01T03:08:07;9.35;;;6.22;;
55372;SDS011;41249;47.838;16.490;2023-03-01T03:10:36;9.65;;;6.18;;
55372;SDS011;41249;47.838;16.490;2023-03-01T03:13:07;12.02;;;6.30;;
55372;SDS011;41249;47.838;16.490;2023-03-01T03:15:37;12.52;;;6.78;;
55372;SDS011;41249;47.838;16.490;2023-03-01T03:18:06;12.27;;;7.72;;
55372;SDS011;41249;47.838;16.490;2023-03-01T03:20:38;9.75;;;6.32;;
55372;SDS011;41249;47.838;16.490;2023-03-01T03:23:06;10.05;;;5.93;;
55372;SDS011;41249;47.838;16.490;2023-03-01T03:25:32;11.75;;;6.35;;
55372;SDS011;41249;47.838;16.490;2023-03-01T03:28:04;17.05;;;10.52;;
55372;SDS011;41249;47.838;16.490;2023-03-01T03:30:36;12.60;;;8.63;;
55372;SDS011;41249;47.838;16.490;2023-03-01T03:33:08;14.00;;;8.02;;
55372;SDS011;41249;47.838;16.490;2023-03-01T03:35:43;10.35;;;6.88;;
55372;SDS011;41249;47.838;16.490;2023-03-01T03:38:12;12.68;;;5.85;;
55372;SDS011;41249;47.838;16.490;2023-03-01T03:40:47;10.80;;;7.18;;
55372;SDS011;41249;47.838;16.490;2023-03-01T03:43:16;12.07;;;5.55;;
55372;SDS011;41249;47.838;16.490;2023-03-01T03:45:45;10.90;;;7.82;;
55372;SDS011;41249;47.838;16.490;2023-03-01T03:48:13;17.30;;;9.43;;
55372;SDS011;41249;47.838;16.490;2023-03-01T03:50:40;16.88;;;10.43;;
55372;SDS011;41249;47.838;16.490;2023-03-01T03:53:08;14.60;;;7.63;;
55372;SDS011;41249;47.838;16.490;2023-03-01T03:55:37;18.55;;;9.88;;
55372;SDS011;41249;47.838;16.490;2023-03-01T03:58:06;16.25;;;9.40;;
55372;SDS011;41249;47.838;16.490;2023-03-01T04:00:35;13.82;;;7.28;;
55372;SDS011;41249;47.838;16.490;2023-03-01T04:03:04;12.95;;;7.70;;
55372;SDS011;41249;47.838;16.490;2023-03-01T04:05:31;12.02;;;8.98;;
55372;SDS011;41249;47.838;16.490;2023-03-01T04:07:58;14.55;;;8.93;;
55372;SDS011;41249;47.838;16.490;2023-03-01T04:10:29;11.57;;;7.60;;
55372;SDS011;41249;47.838;16.490;2023-03-01T04:12:58;13.68;;;7.80;;
55372;SDS011;41249;47.838;16.490;2023-03-01T04:15:25;19.63;;;11.23;;
55372;SDS011;41249;47.838;16.490;2023-03-01T04:17:53;15.27;;;8.93;;
55372;SDS011;41249;47.838;16.490;2023-03-01T04:20:24;17.17;;;8.82;;
55372;SDS011;41249;47.838;16.490;2023-03-01T04:23:26;13.80;;;7.05;;
55372;SDS011;41249;47.838;16.490;2023-03-01T04:28:23;22.33;;;9.35;;
55372;SDS011;41249;47.838;16.490;2023-03-01T04:31:06;11.60;;;6.95;;
55372;SDS011;41249;47.838;16.490;2023-03-01T04:33:46;13.02;;;6.88;;
55372;SDS011;41249;47.838;16.490;2023-03-01T04:36:15;12.10;;;7.57;;
55372;SDS011;41249;47.838;16.490;2023-03-01T04:38:43;14.90;;;8.70;;
55372;SDS011;41249;47.838;16.490;2023-03-01T04:41:17;22.40;;;12.40;;
55372;SDS011;41249;47.838;16.490;2023-03-01T04:43:47;20.73;;;11.73;;
55372;SDS011;41249;47.838;16.490;2023-03-01T04:46:15;25.08;;;12.77;;
55372;SDS011;41249;47.838;16.490;2023-03-01T04:48:44;20.55;;;9.57;;
55372;SDS011;41249;47.838;16.490;2023-03-01T04:51:13;19.25;;;10.73;;
55372;SDS011;41249;47.838;16.490;2023-03-01T04:53:41;14.40;;;9.30;;
55372;SDS011;41249;47.838;16.490;2023-03-01T04:56:08;12.57;;;7.88;;
55372;SDS011;41249;47.838;16.490;2023-03-01T04:58:36;13.05;;;8.40;;
55372;SDS011;41249;47.838;16.490;2023-03-01T05:01:07;12.85;;;7.63;;
55372;SDS011;41249;47.838;16.490;2023-03-01T05:03:42;12.98;;;7.70;;
55372;SDS011;41249;47.838;16.490;2023-03-01T05:06:13;15.35;;;7.65;;
55372;SDS011;41249;47.838;16.490;2023-03-01T05:08:40;14.15;;;7.03;;
55372;SDS011;41249;47.838;16.490;2023-03-01T05:11:08;12.60;;;7.97;;
55372;SDS011;41249;47.838;16.490;2023-03-01T05:13:36;11.82;;;7.53;;
55372;SDS011;41249;47.838;16.490;2023-03-01T05:16:05;12.88;;;6.18;;
55372;SDS011;41249;47.838;16.490;2023-03-01T05:18:33;12.75;;;6.90;;
55372;SDS011;41249;47.838;16.490;2023-03-01T05:21:05;12.75;;;6.90;;
55372;SDS011;41249;47.838;16.490;2023-03-01T05:23:36;17.85;;;9.73;;
55372;SDS011;41249;47.838;16.490;2023-03-01T05:26:04;13.27;;;8.38;;
55372;SDS011;41249;47.838;16.490;2023-03-01T05:28:36;12.65;;;6.40;;
55372;SDS011;41249;47.838;16.490;2023-03-01T05:31:04;10.30;;;7.07;;
55372;SDS011;41249;47.838;16.490;2023-03-01T05:33:36;11.45;;;6.82;;
55372;SDS011;41249;47.838;16.490;2023-03-01T05:36:07;12.63;;;7.72;;
55372;SDS011;41249;47.838;16.490;2023-03-01T05:38:35;16.25;;;8.45;;
55372;SDS011;41249;47.838;16.490;2023-03-01T05:41:03;14.20;;;7.93;;
55372;SDS011;41249;47.838;16.490;2023-03-01T05:43:30;16.20;;;10.10;;
55372;SDS011;41249;47.838;16.490;2023-03-01T05:46:00;11.18;;;7.68;;
55372;SDS011;41249;47.838;16.490;2023-03-01T05:48:27;13.52;;;7.40;;
55372;SDS011;41249;47.838;16.490;2023-03-01T05:50:53;17.08;;;9.30;;
55372;SDS011;41249;47.838;16.490;2023-03-01T05:53:20;16.50;;;9.15;;
55372;SDS011;41249;47.838;16.490;2023-03-01T05:55:48;15.73;;;8.68;;
55372;SDS011;41249;47.838;16.490;2023-03-01T05:58:16;11.57;;;7.65;;
55372;SDS011;41249;47.838;16.490;2023-03-01T06:00:46;14.40;;;8.70;;
55372;SDS011;41249;47.838;16.490;2023-03-01T06:03:15;13.98;;;9.68;;
55372;SDS011;41249;47.838;16.490;2023-03-01T06:05:43;17.92;;;9.43;;
55372;SDS011;41249;47.838;16.490;2023-03-01T06:08:11;15.82;;;9.75;;
55372;SDS011;41249;47.838;16.490;2023-03-01T06:10:38;16.80;;;9.57;;
55372;SDS011;41249;47.838;16.490;2023-03-01T06:13:06;19.45;;;10.90;;
55372;SDS011;41249;47.838;16.490;2023-03-01T06:15:33;23.52;;;11.32;;
55372;SDS011;41249;47.838;16.490;2023-03-01T06:18:00;20.67;;;11.35;;
55372;SDS011;41249;47.838;16.490;2023-03-01T06:20:27;15.60;;;8.63;;
55372;SDS011;41249;47.838;16.490;2023-03-01T06:22:55;15.02;;;8.35;;
55372;SDS011;41249;47.838;16.490;2023-03-01T06:25:23;15.50;;;8.98;;
55372;SDS011;41249;47.838;16.490;2023-03-01T06:27:51;18.40;;;10.55;;
55372;SDS011;41249;47.838;16.490;2023-03-01T06:30:19;19.98;;;10.90;;
55372;SDS011;41249;47.838;16.490;2023-03-01T06:32:47;18.35;;;10.18;;
55372;SDS011;41249;47.838;16.490;2023-03-01T06:35:14;20.50;;;12.00;;
55372;SDS011;41249;47.838;16.490;2023-03-01T06:37:45;15.43;;;9.38;;
55372;SDS011;41249;47.838;16.490;2023-03-01T06:40:13;14.23;;;9.15;;
55372;SDS011;41249;47.838;16.490;2023-03-01T06:42:43;17.63;;;8.77;;
55372;SDS011;41249;47.838;16.490;2023-03-01T06:45:15;15.60;;;8.75;;
55372;SDS011;41249;47.838;16.490;2023-03-01T06:47:42;16.52;;;9.50;;
55372;SDS011;41249;47.838;16.490;2023-03-01T06:50:09;15.48;;;9.85;;
55372;SDS011;41249;47.838;16.490;2023-03-01T06:52:37;22.20;;;11.93;;
55372;SDS011;41249;47.838;16.490;2023-03-01T06:55:04;28.63;;;15.88;;
55372;SDS011;41249;47.838;16.490;2023-03-01T06:57:32;22.92;;;11.73;;
55372;SDS011;41249;47.838;16.490;2023-03-01T06:59:59;17.60;;;10.00;;
55372;SDS011;41249;47.838;16.490;2023-03-01T07:02:25;18.90;;;10.38;;
55372;SDS011;41249;47.838;16.490;2023-03-01T07:04:52;21.88;;;10.98;;
55372;SDS011;41249;47.838;16.490;2023-03-01T07:07:18;17.00;;;10.52;;
55372;SDS011;41249;47.838;16.490;2023-03-01T07:09:46;20.35;;;10.98;;
55372;SDS011;41249;47.838;16.490;2023-03-01T07:12:13;21.00;;;12.55;;
55372;SDS011;41249;47.838;16.490;2023-03-01T07:14:39;30.45;;;14.90;;
55372;SDS011;41249;47.838;16.490;2023-03-01T07:17:06;20.85;;;13.55;;
55372;SDS011;41249;47.838;16.490;2023-03-01T07:19:33;20.55;;;13.40;;
55372;SDS011;41249;47.838;16.490;2023-03-01T07:21:59;20.35;;;11.90;;
55372;SDS011;41249;47.838;16.490;2023-03-01T07:24:26;25.08;;;13.45;;
55372;SDS011;41249;47.838;16.490;2023-03-01T07:26:53;23.30;;;12.40;;
55372;SDS011;41249;47.838;16.490;2023-03-01T07:29:19;18.85;;;11.30;;
55372;SDS011;41249;47.838;16.490;2023-03-01T07:31:46;19.27;;;12.38;;
55372;SDS011;41249;47.838;16.490;2023-03-01T07:34:13;20.70;;;12.65;;
55372;SDS011;41249;47.838;16.490;2023-03-01T07:36:40;22.17;;;13.30;;
55372;SDS011;41249;47.838;16.490;2023-03-01T07:39:12;19.58;;;12.80;;
55372;SDS011;41249;47.838;16.490;2023-03-01T07:41:38;16.27;;;9.43;;
55372;SDS011;41249;47.838;16.490;2023-03-01T07:44:06;18.48;;;12.52;;
55372;SDS011;41249;47.838;16.490;2023-03-01T07:46:32;16.35;;;10.82;;
55372;SDS011;41249;47.838;16.490;2023-03-01T07:48:59;19.33;;;11.85;;
55372;SDS011;41249;47.838;16.490;2023-03-01T07:51:26;20.88;;;14.07;;
55372;SDS011;41249;47.838;16.490;2023-03-01T07:53:52;18.23;;;9.95;;
55372;SDS011;41249;47.838;16.490;2023-03-01T07:56:19;16.65;;;10.50;;
55372;SDS011;41249;47.838;16.490;2023-03-01T07:58:47;13.50;;;9.50;;
55372;SDS011;41249;47.838;16.490;2023-03-01T08:01:17;25.58;;;14.18;;
55372;SDS011;41249;47.838;16.490;2023-03-01T08:03:46;22.88;;;13.90;;
55372;SDS011;41249;47.838;16.490;2023-03-01T08:06:13;24.35;;;13.32;;
55372;SDS011;41249;47.838;16.490;2023-03-01T08:08:41;26.38;;;13.05;;
55372;SDS011;41249;47.838;16.490;2023-03-01T08:11:10;30.30;;;14.45;;
55372;SDS011;41249;47.838;16.490;2023-03-01T08:13:38;23.27;;;12.02;;
55372;SDS011;41249;47.838;16.490;2023-03-01T08:16:09;21.67;;;10.40;;
55372;SDS011;41249;47.838;16.490;2023-03-01T08:18:38;25.63;;;11.07;;
55372;SDS011;41249;47.838;16.490;2023-03-01T08:21:06;19.27;;;10.40;;
55372;SDS011;41249;47.838;16.490;2023-03-01T08:23:34;25.58;;;15.13;;
55372;SDS011;41249;47.838;16.490;2023-03-01T08:26:05;18.27;;;11.30;;
55372;SDS011;41249;47.838;16.490;2023-03-01T08:28:34;22.60;;;14.07;;
55372;SDS011;41249;47.838;16.490;2023-03-01T08:31:01;24.95;;;13.30;;
55372;SDS011;41249;47.838;16.490;2023-03-01T08:33:28;24.48;;;14.52;;
55372;SDS011;41249;47.838;16.490;2023-03-01T08:36:02;23.25;;;13.05;;
55372;SDS011;41249;47.838;16.490;2023-03-01T08:38:30;24.13;;;13.32;;
55372;SDS011;41249;47.838;16.490;2023-03-01T08:40:59;26.95;;;14.73;;
55372;SDS011;41249;47.838;16.490;2023-03-01T08:43:26;29.83;;;15.50;;
55372;SDS011;41249;47.838;16.490;2023-03-01T08:45:53;31.58;;;15.23;;
55372;SDS011;41249;47.838;16.490;2023-03-01T08:48:19;30.13;;;16.83;;
55372;SDS011;41249;47.838;16.490;2023-03-01T08:50:46;22.52;;;13.70;;
55372;SDS011;41249;47.838;16.490;2023-03-01T08:53:12;17.83;;;11.93;;
55372;SDS011;41249;47.838;16.490;2023-03-01T08:55:39;23.52;;;14.02;;
55372;SDS011;41249;47.838;16.490;2023-03-01T08:58:05;23.90;;;15.18;;
55372;SDS011;41249;47.838;16.490;2023-03-01T09:00:32;20.73;;;12.52;;
55372;SDS011;41249;47.838;16.490;2023-03-01T09:03:01;25.48;;;13.40;;
55372;SDS011;41249;47.838;16.490;2023-03-01T09:05:28;25.15;;;15.85;;
55372;SDS011;41249;47.838;16.490;2023-03-01T09:07:58;20.48;;;12.38;;
55372;SDS011;41249;47.838;16.490;2023-03-01T09:10:25;27.67;;;15.98;;
55372;SDS011;41249;47.838;16.490;2023-03-01T09:12:52;20.92;;;13.20;;
55372;SDS011;41249;47.838;16.490;2023-03-01T09:15:19;23.58;;;13.45;;
55372;SDS011;41249;47.838;16.490;2023-03-01T09:17:45;21.05;;;11.75;;
55372;SDS011;41249;47.838;16.490;2023-03-01T09:20:13;23.25;;;11.10;;
55372;SDS011;41249;47.838;16.490;2023-03-01T09:22:39;23.50;;;14.60;;
55372;SDS011;41249;47.838;16.490;2023-03-01T09:25:06;20.05;;;12.90;;
55372;SDS011;41249;47.838;16.490;2023-03-01T09:27:33;19.58;;;11.73;;
55372;SDS011;41249;47.838;16.490;2023-03-01T09:30:00;22.63;;;14.35;;
55372;SDS011;41249;47.838;16.490;2023-03-01T09:32:27;20.17;;;11.65;;
55372;SDS011;41249;47.838;16.490;2023-03-01T09:34:56;22.17;;;12.00;;
55372;SDS011;41249;47.838;16.490;2023-03-01T09:37:32;19.52;;;11.85;;
55372;SDS011;41249;47.838;16.490;2023-03-01T09:40:00;24.15;;;13.73;;
55372;SDS011;41249;47.838;16.490;2023-03-01T09:42:27;23.65;;;14.82;;
55372;SDS011;41249;47.838;16.490;2023-03-01T09:45:00;18.48;;;11.45;;
55372;SDS011;41249;47.838;16.490;2023-03-01T09:47:30;15.95;;;10.82;;
55372;SDS011;41249;47.838;16.490;2023-03-01T09:50:04;20.33;;;12.48;;
55372;SDS011;41249;47.838;16.490;2023-03-01T09:52:42;17.08;;;11.02;;
55372;SDS011;41249;47.838;16.490;2023-03-01T09:55:13;18.80;;;10.55;;
55372;SDS011;41249;47.838;16.490;2023-03-01T09:58:03;17.45;;;11.75;;
55372;SDS011;41249;47.838;16.490;2023-03-01T10:00:52;17.23;;;10.80;;
55372;SDS011;41249;47.838;16.490;2023-03-01T10:03:26;16.27;;;9.90;;
55372;SDS011;41249;47.838;16.490;2023-03-01T10:09:10;18.35;;;11.10;;
55372;SDS011;41249;47.838;16.490;2023-03-01T10:11:47;17.65;;;10.70;;
55372;SDS011;41249;47.838;16.490;2023-03-01T10:14:25;16.80;;;10.27;;
55372;SDS011;41249;47.838;16.490;2023-03-01T10:16:59;17.77;;;9.40;;
55372;SDS011;41249;47.838;16.490;2023-03-01T10:19:30;22.58;;;11.50;;
55372;SDS011;41249;47.838;16.490;2023-03-01T10:24:58;18.00;;;9.15;;
55372;SDS011;41249;47.838;16.490;2023-03-01T10:27:36;14.25;;;9.18;;
55372;SDS011;41249;47.838;16.490;2023-03-01T10:30:20;14.73;;;9.13;;
55372;SDS011;41249;47.838;16.490;2023-03-01T10:33:00;16.60;;;10.30;;
55372;SDS011;41249;47.838;16.490;2023-03-01T10:35:29;13.82;;;9.32;;
55372;SDS011;41249;47.838;16.490;2023-03-01T10:38:06;12.15;;;8.70;;
55372;SDS011;41249;47.838;16.490;2023-03-01T10:40:49;11.88;;;8.40;;
55372;SDS011;41249;47.838;16.490;2023-03-01T10:43:17;16.55;;;8.48;;
55372;SDS011;41249;47.838;16.490;2023-03-01T10:45:45;15.23;;;9.05;;
55372;SDS011;41249;47.838;16.490;2023-03-01T10:50:44;11.10;;;7.75;;
55372;SDS011;41249;47.838;16.490;2023-03-01T10:53:23;11.90;;;7.50;;
55372;SDS011;41249;47.838;16.490;2023-03-01T10:55:56;12.68;;;7.32;;
55372;SDS011;41249;47.838;16.490;2023-03-01T10:58:23;12.20;;;7.82;;
55372;SDS011;41249;47.838;16.490;2023-03-01T11:00:54;11.35;;;7.57;;
55372;SDS011;41249;47.838;16.490;2023-03-01T11:03:35;11.15;;;8.30;;
55372;SDS011;41249;47.838;16.490;2023-03-01T11:08:43;10.77;;;7.15;;
55372;SDS011;41249;47.838;16.490;2023-03-01T11:14:00;10.35;;;7.05;;
55372;SDS011;41249;47.838;16.490;2023-03-01T11:17:01;12.05;;;7.40;;
55372;SDS011;41249;47.838;16.490;2023-03-01T11:20:02;11.00;;;7.78;;
55372;SDS011;41249;47.838;16.490;2023-03-01T11:22:48;12.98;;;8.40;;
55372;SDS011;41249;47.838;16.490;2023-03-01T11:25:19;11.75;;;8.45;;
55372;SDS011;41249;47.838;16.490;2023-03-01T11:27:50;12.85;;;8.80;;
55372;SDS011;41249;47.838;16.490;2023-03-01T11:36:00;13.00;;;7.90;;
55372;SDS011;41249;47.838;16.490;2023-03-01T11:38:32;11.00;;;7.18;;
55372;SDS011;41249;47.838;16.490;2023-03-01T11:43:58;11.90;;;7.88;;
55372;SDS011;41249;47.838;16.490;2023-03-01T11:46:32;13.40;;;7.93;;
55372;SDS011;41249;47.838;16.490;2023-03-01T11:49:14;9.00;;;6.50;;
55372;SDS011;41249;47.838;16.490;2023-03-01T11:55:02;13.10;;;7.15;;
55372;SDS011;41249;47.838;16.490;2023-03-01T12:03:23;11.00;;;7.07;;
55372;SDS011;41249;47.838;16.490;2023-03-01T12:06:13;10.05;;;7.30;;
55372;SDS011;41249;47.838;16.490;2023-03-01T12:11:30;11.40;;;7.18;;
55372;SDS011;41249;47.838;16.490;2023-03-01T12:17:12;13.48;;;8.30;;
55372;SDS011;41249;47.838;16.490;2023-03-01T12:22:31;11.63;;;7.63;;
55372;SDS011;41249;47.838;16.490;2023-03-01T12:28:49;14.15;;;7.85;;
55372;SDS011;41249;47.838;16.490;2023-03-01T12:34:16;16.88;;;10.32;;
55372;SDS011;41249;47.838;16.490;2023-03-01T12:37:13;11.48;;;7.53;;
55372;SDS011;41249;47.838;16.490;2023-03-01T12:39:51;10.07;;;6.38;;
55372;SDS011;41249;47.838;16.490;2023-03-01T12:45:25;14.63;;;7.60;;
55372;SDS011;41249;47.838;16.490;2023-03-01T12:51:15;10.77;;;7.22;;
55372;SDS011;41249;47.838;16.490;2023-03-01T12:53:51;9.88;;;5.90;;
55372;SDS011;41249;47.838;16.490;2023-03-01T12:56:21;8.90;;;6.20;;
55372;SDS011;41249;47.838;16.490;2023-03-01T13:05:14;12.73;;;7.75;;
55372;SDS011;41249;47.838;16.490;2023-03-01T13:07:42;9.20;;;5.75;;
55372;SDS011;41249;47.838;16.490;2023-03-01T13:13:23;9.77;;;6.05;;
55372;SDS011;41249;47.838;16.490;2023-03-01T13:15:51;9.95;;;5.70;;
55372;SDS011;41249;47.838;16.490;2023-03-01T13:20:49;9.73;;;5.18;;
55372;SDS011;41249;47.838;16.490;2023-03-01T13:31:02;7.57;;;5.18;;
55372;SDS011;41249;47.838;16.490;2023-03-01T13:33:43;8.18;;;4.35;;
55372;SDS011;41249;47.838;16.490;2023-03-01T13:39:26;8.32;;;5.38;;
55372;SDS011;41249;47.838;16.490;2023-03-01T13:41:58;8.10;;;4.55;;
55372;SDS011;41249;47.838;16.490;2023-03-01T13:44:33;8.77;;;5.03;;
55372;SDS011;41249;47.838;16.490;2023-03-01T13:57:40;8.20;;;4.18;;
55372;SDS011;41249;47.838;16.490;2023-03-01T14:00:26;5.80;;;3.80;;
55372;SDS011;41249;47.838;16.490;2023-03-01T14:03:02;8.57;;;4.00;;
55372;SDS011;41249;47.838;16.490;2023-03-01T14:05:32;5.43;;;3.42;;
55372;SDS011;41249;47.838;16.490;2023-03-01T14:07:59;5.03;;;3.10;;
55372;SDS011;41249;47.838;16.490;2023-03-01T14:10:29;5.95;;;3.80;;
55372;SDS011;41249;47.838;16.490;2023-03-01T14:13:53;9.45;;;3.97;;
55372;SDS011;41249;47.838;16.490;2023-03-01T14:16:14;8.95;;;5.65;;
55372;SDS011;41249;47.838;16.490;2023-03-01T14:21:43;8.82;;;6.22;;
55372;SDS011;41249;47.838;16.490;2023-03-01T14:24:20;12.88;;;5.00;;
55372;SDS011;41249;47.838;16.490;2023-03-01T14:26:51;7.88;;;4.80;;
55372;SDS011;41249;47.838;16.490;2023-03-01T14:29:53;14.35;;;5.50;;
55372;SDS011;41249;47.838;16.490;2023-03-01T14:32:20;11.13;;;7.15;;
55372;SDS011;41249;47.838;16.490;2023-03-01T14:34:50;10.63;;;6.40;;
55372;SDS011;41249;47.838;16.490;2023-03-01T14:37:21;12.55;;;6.43;;
55372;SDS011;41249;47.838;16.490;2023-03-01T14:39:48;9.40;;;6.30;;
55372;SDS011;41249;47.838;16.490;2023-03-01T14:42:16;11.00;;;7.32;;
55372;SDS011;41249;47.838;16.490;2023-03-01T14:44:45;11.45;;;6.97;;
55372;SDS011;41249;47.838;16.490;2023-03-01T14:47:15;9.80;;;5.60;;
55372;SDS011;41249;47.838;16.490;2023-03-01T14:49:49;8.13;;;5.65;;
55372;SDS011;41249;47.838;16.490;2023-03-01T14:52:22;9.73;;;6.03;;
55372;SDS011;41249;47.838;16.490;2023-03-01T14:54:52;10.95;;;6.93;;
55372;SDS011;41249;47.838;16.490;2023-03-01T14:57:24;12.00;;;6.40;;
55372;SDS011;41249;47.838;16.490;2023-03-01T14:59:53;16.13;;;7.95;;
55372;SDS011;41249;47.838;16.490;2023-03-01T15:02:22;11.13;;;6.43;;
55372;SDS011;41249;47.838;16.490;2023-03-01T15:04:55;11.98;;;6.85;;
55372;SDS011;41249;47.838;16.490;2023-03-01T15:07:26;9.95;;;6.65;;
55372;SDS011;41249;47.838;16.490;2023-03-01T15:09:55;9.50;;;5.28;;
55372;SDS011;41249;47.838;16.490;2023-03-01T15:14:55;10.93;;;6.50;;
55372;SDS011;41249;47.838;16.490;2023-03-01T15:20:04;12.45;;;6.47;;
55372;SDS011;41249;47.838;16.490;2023-03-01T15:22:42;10.32;;;6.15;;
55372;SDS011;41249;47.838;16.490;2023-03-01T15:25:15;10.88;;;5.90;;
55372;SDS011;41249;47.838;16.490;2023-03-01T15:27:47;10.02;;;6.43;;
55372;SDS011;41249;47.838;16.490;2023-03-01T15:30:21;10.45;;;6.45;;
55372;SDS011;41249;47.838;16.490;2023-03-01T15:35:50;13.93;;;6.55;;
55372;SDS011;41249;47.838;16.490;2023-03-01T15:39:03;11.98;;;5.40;;
55372;SDS011;41249;47.838;16.490;2023-03-01T15:41:25;10.13;;;6.07;;
55372;SDS011;41249;47.838;16.490;2023-03-01T15:43:59;13.88;;;5.68;;
55372;SDS011;41249;47.838;16.490;2023-03-01T15:46:39;11.15;;;6.20;;
55372;SDS011;41249;47.838;16.490;2023-03-01T15:52:22;10.40;;;6.82;;
55372;SDS011;41249;47.838;16.490;2023-03-01T15:55:04;10.27;;;6.43;;
55372;SDS011;41249;47.838;16.490;2023-03-01T15:57:58;10.48;;;6.63;;
55372;SDS011;41249;47.838;16.490;2023-03-01T16:00:48;9.32;;;6.25;;
55372;SDS011;41249;47.838;16.490;2023-03-01T16:03:27;8.73;;;5.85;;
55372;SDS011;41249;47.838;16.490;2023-03-01T16:05:54;8.25;;;5.30;;
55372;SDS011;41249;47.838;16.490;2023-03-01T16:08:21;9.60;;;6.20;;
55372;SDS011;41249;47.838;16.490;2023-03-01T16:10:48;9.50;;;5.93;;
55372;SDS011;41249;47.838;16.490;2023-03-01T16:13:17;10.90;;;6.05;;
55372;SDS011;41249;47.838;16.490;2023-03-01T16:15:44;9.82;;;5.55;;
55372;SDS011;41249;47.838;16.490;2023-03-01T16:18:11;13.50;;;5.70;;
55372;SDS011;41249;47.838;16.490;2023-03-01T16:20:38;9.35;;;6.13;;
55372;SDS011;41249;47.838;16.490;2023-03-01T16:23:07;11.85;;;5.78;;
55372;SDS011;41249;47.838;16.490;2023-03-01T16:25:35;7.88;;;5.55;;
55372;SDS011;41249;47.838;16.490;2023-03-01T16:28:02;10.50;;;5.97;;
55372;SDS011;41249;47.838;16.490;2023-03-01T16:30:36;8.95;;;5.25;;
55372;SDS011;41249;47.838;16.490;2023-03-01T16:33:05;9.73;;;6.32;;
55372;SDS011;41249;47.838;16.490;2023-03-01T16:35:50;11.05;;;5.93;;
55372;SDS011;41249;47.838;16.490;2023-03-01T16:38:17;9.43;;;5.55;;